createdAt,value
2017-11-29T00:02:00.281Z,99560
2017-11-29T00:04:28.435Z,99569
2017-11-29T00:06:57.240Z,99567
2017-11-29T00:09:25.313Z,99568
2017-11-29T00:11:53.644Z,99564
2017-11-29T00:14:21.729Z,99573
2017-11-29T00:16:49.815Z,99570
2017-11-29T00:19:18.620Z,99572
2017-11-29T00:21:46.736Z,99576
2017-11-29T00:24:14.893Z,99574
2017-11-29T00:26:42.988Z,99572
2017-11-29T00:29:11.041Z,99574
2017-11-29T00:31:39.137Z,99582
2017-11-29T00:34:07.232Z,99565
2017-11-29T00:36:35.628Z,99572
2017-11-29T00:39:03.937Z,99567
2017-11-29T00:41:32.072Z,99572
2017-11-29T00:44:00.160Z,99573
2017-11-29T00:46:28.465Z,99579
2017-11-29T00:48:56.545Z,99573
2017-11-29T00:51:24.865Z,99582
2017-11-29T00:53:53.665Z,99587
2017-11-29T00:56:21.981Z,99584
2017-11-29T00:58:50.109Z,99581
2017-11-29T01:01:18.973Z,99587
2017-11-29T01:03:47.101Z,99586
2017-11-29T01:06:15.207Z,99586
2017-11-29T01:08:43.268Z,99588
2017-11-29T01:11:11.648Z,99590
2017-11-29T01:13:39.701Z,99593
2017-11-29T01:16:07.867Z,99590
2017-11-29T01:18:35.909Z,99589
2017-11-29T01:21:05.144Z,99588
2017-11-29T01:23:33.204Z,99597
2017-11-29T01:26:01.266Z,99600
2017-11-29T01:28:29.324Z,99588
2017-11-29T01:30:57.365Z,99599
2017-11-29T01:33:25.414Z,99597
2017-11-29T01:35:53.781Z,99600
2017-11-29T01:38:21.817Z,99597
2017-11-29T01:40:49.897Z,99593
2017-11-29T01:43:17.937Z,99594
2017-11-29T01:45:47.500Z,99587
2017-11-29T01:48:15.636Z,99590
2017-11-29T01:50:44.460Z,99593
2017-11-29T01:53:12.505Z,99587
2017-11-29T01:55:40.842Z,99588
2017-11-29T01:58:09.356Z,99597
2017-11-29T02:00:48.052Z,99604
2017-11-29T02:03:16.130Z,99606
2017-11-29T02:05:44.212Z,99602
2017-11-29T02:08:12.252Z,99600
2017-11-29T02:10:40.314Z,99612
2017-11-29T02:13:08.772Z,99610
2017-11-29T02:15:36.866Z,99615
2017-11-29T02:18:05.148Z,99607
2017-11-29T02:20:33.309Z,99603
2017-11-29T02:23:01.512Z,99609
2017-11-29T02:25:29.713Z,99614
2017-11-29T02:27:57.873Z,99610
2017-11-29T02:30:26.295Z,99601
2017-11-29T02:32:54.421Z,99610
2017-11-29T02:35:22.477Z,99604
2017-11-29T02:37:50.625Z,99607
2017-11-29T02:42:35.447Z,99610
2017-11-29T02:45:03.616Z,99603
2017-11-29T02:47:31.985Z,99607
2017-11-29T02:50:00.139Z,99610
2017-11-29T02:52:28.626Z,99611
2017-11-29T02:54:56.789Z,99615
2017-11-29T02:57:24.960Z,99606
2017-11-29T02:59:53.269Z,99613
2017-11-29T03:02:21.361Z,99617
2017-11-29T03:04:49.417Z,99616
2017-11-29T03:07:17.919Z,99608
2017-11-29T03:09:45.970Z,99620
2017-11-29T03:12:14.021Z,99621
2017-11-29T03:14:42.089Z,99619
2017-11-29T03:17:10.373Z,99615
2017-11-29T03:19:38.476Z,99613
2017-11-29T03:22:06.518Z,99604
2017-11-29T03:24:34.561Z,99612
2017-11-29T03:27:02.653Z,99615
2017-11-29T03:29:31.116Z,99607
2017-11-29T03:31:59.176Z,99613
2017-11-29T03:34:27.241Z,99615
2017-11-29T03:36:55.276Z,99606
2017-11-29T03:39:23.341Z,99617
2017-11-29T03:41:51.677Z,99620
2017-11-29T03:44:19.722Z,99617
2017-11-29T03:46:47.841Z,99611
2017-11-29T03:49:15.892Z,99623
2017-11-29T03:51:43.933Z,99620
2017-11-29T03:54:12.468Z,99624
2017-11-29T03:56:40.560Z,99630
2017-11-29T03:59:08.623Z,99626
2017-11-29T04:01:36.673Z,99627
2017-11-29T04:04:04.968Z,99620
2017-11-29T04:06:33.040Z,99625
2017-11-29T04:09:01.503Z,99624
2017-11-29T04:11:29.624Z,99625
2017-11-29T04:13:57.869Z,99617
2017-11-29T04:16:25.969Z,99624
2017-11-29T04:18:54.134Z,99629
2017-11-29T04:21:22.276Z,99625
2017-11-29T04:23:50.393Z,99627
2017-11-29T04:26:18.520Z,99635
2017-11-29T04:28:46.711Z,99634
2017-11-29T04:31:14.776Z,99636
2017-11-29T04:33:42.867Z,99630
2017-11-29T04:36:10.913Z,99632
2017-11-29T04:38:38.961Z,99636
2017-11-29T04:41:07.736Z,99624
2017-11-29T04:43:36.782Z,99628
2017-11-29T04:46:04.861Z,99629
2017-11-29T04:48:32.973Z,99635
2017-11-29T04:51:03.042Z,99632
2017-11-29T04:53:31.164Z,99643
2017-11-29T04:56:00.058Z,99634
2017-11-29T04:58:28.898Z,99634
2017-11-29T05:00:56.993Z,99641
2017-11-29T05:03:25.169Z,99637
2017-11-29T05:05:53.332Z,99636
2017-11-29T05:08:21.436Z,99627
2017-11-29T05:10:49.568Z,99635
2017-11-29T05:13:17.679Z,99642
2017-11-29T05:15:46.550Z,99637
2017-11-29T05:18:14.669Z,99644
2017-11-29T05:20:42.860Z,99644
2017-11-29T05:23:11.028Z,99645
2017-11-29T05:25:39.118Z,99642
2017-11-29T05:28:07.230Z,99645
2017-11-29T05:30:35.413Z,99642
2017-11-29T05:33:03.720Z,99647
2017-11-29T05:35:31.849Z,99646
2017-11-29T05:37:59.981Z,99647
2017-11-29T05:40:28.105Z,99655
2017-11-29T05:42:56.268Z,99647
2017-11-29T05:45:24.756Z,99659
2017-11-29T05:47:53.629Z,99653
2017-11-29T05:50:21.765Z,99667
2017-11-29T05:52:49.897Z,99651
2017-11-29T05:55:18.056Z,99654
2017-11-29T05:57:46.912Z,99663
2017-11-29T06:00:15.089Z,99668
2017-11-29T06:02:43.251Z,99670
2017-11-29T06:05:11.409Z,99673
2017-11-29T06:07:39.559Z,99670
2017-11-29T06:10:08.402Z,99676
2017-11-29T06:12:36.545Z,99670
2017-11-29T06:15:04.849Z,99678
2017-11-29T06:17:33.548Z,99674
2017-11-29T06:20:01.722Z,99686
2017-11-29T06:22:29.844Z,99677
2017-11-29T06:24:57.969Z,99686
2017-11-29T06:27:26.074Z,99689
2017-11-29T06:29:54.173Z,99689
2017-11-29T06:32:22.949Z,99687
2017-11-29T06:34:50.992Z,99692
2017-11-29T06:37:19.016Z,99696
2017-11-29T06:39:47.808Z,99694
2017-11-29T06:42:15.897Z,99690
2017-11-29T06:44:44.128Z,99692
2017-11-29T06:47:12.912Z,99698
2017-11-29T06:49:41.720Z,99698
2017-11-29T06:52:09.792Z,99709
2017-11-29T06:54:38.577Z,99706
2017-11-29T06:57:07.364Z,99714
2017-11-29T06:59:35.881Z,99712
2017-11-29T07:02:03.961Z,99714
2017-11-29T07:04:32.038Z,99716
2017-11-29T07:07:00.120Z,99713
2017-11-29T07:09:28.197Z,99717
2017-11-29T07:11:56.255Z,99723
2017-11-29T07:14:24.320Z,99718
2017-11-29T07:16:52.397Z,99724
2017-11-29T07:19:20.441Z,99721
2017-11-29T07:21:48.493Z,99736
2017-11-29T07:24:16.993Z,99733
2017-11-29T07:26:45.049Z,99741
2017-11-29T07:29:13.928Z,99750
2017-11-29T07:31:41.997Z,99746
2017-11-29T07:34:10.782Z,99759
2017-11-29T07:36:38.852Z,99751
2017-11-29T07:39:06.963Z,99750
2017-11-29T07:41:35.037Z,99762
2017-11-29T07:44:03.259Z,99757
2017-11-29T07:46:31.363Z,99759
2017-11-29T07:49:00.503Z,99763
2017-11-29T07:51:28.549Z,99764
2017-11-29T07:53:56.749Z,99769
2017-11-29T07:56:24.855Z,99773
2017-11-29T07:58:52.946Z,99770
2017-11-29T08:01:21.733Z,99767
2017-11-29T08:03:49.845Z,99772
2017-11-29T08:06:17.922Z,99772
2017-11-29T08:08:45.961Z,99771
2017-11-29T08:11:14.002Z,99776
2017-11-29T08:13:42.348Z,99778
2017-11-29T08:16:10.428Z,99778
2017-11-29T08:18:38.496Z,99784
2017-11-29T08:21:06.649Z,99786
2017-11-29T08:23:34.761Z,99776
2017-11-29T08:26:02.939Z,99781
2017-11-29T08:28:31.084Z,99778
2017-11-29T08:30:59.265Z,99773
2017-11-29T08:33:27.437Z,99777
2017-11-29T08:35:55.624Z,99780
2017-11-29T08:38:24.296Z,99780
2017-11-29T08:40:52.429Z,99785
2017-11-29T08:43:21.313Z,99788
2017-11-29T08:45:50.141Z,99787
2017-11-29T08:48:18.297Z,99793
2017-11-29T08:50:46.429Z,99805
2017-11-29T08:53:16.144Z,99805
2017-11-29T08:55:44.325Z,99807
2017-11-29T08:58:12.894Z,99800
2017-11-29T09:00:41.002Z,99805
2017-11-29T09:03:09.405Z,99812
2017-11-29T09:05:37.577Z,99818
2017-11-29T09:08:05.756Z,99811
2017-11-29T09:10:33.881Z,99822
2017-11-29T09:13:02.641Z,99822
2017-11-29T09:15:30.819Z,99826
2017-11-29T09:17:59.237Z,99824
2017-11-29T09:20:28.150Z,99812
2017-11-29T09:22:56.342Z,99821
2017-11-29T09:25:24.497Z,99826
2017-11-29T09:27:52.644Z,99819
2017-11-29T09:30:21.516Z,99826
2017-11-29T09:32:49.867Z,99823
2017-11-29T09:35:17.993Z,99826
2017-11-29T09:37:47.308Z,99828
2017-11-29T09:40:15.540Z,99824
2017-11-29T09:42:43.734Z,99826
2017-11-29T09:45:11.896Z,99825
2017-11-29T09:47:40.828Z,99826
2017-11-29T09:50:09.209Z,99837
2017-11-29T09:52:37.473Z,99835
2017-11-29T09:55:05.668Z,99830
2017-11-29T09:57:34.057Z,99831
2017-11-29T10:00:03.577Z,99820
2017-11-29T10:02:31.764Z,99828
2017-11-29T10:05:00.022Z,99826
2017-11-29T10:07:28.837Z,99824
2017-11-29T10:09:57.209Z,99720
2017-11-29T10:12:25.325Z,99833
2017-11-29T10:14:54.269Z,99830
2017-11-29T10:17:22.467Z,99830
2017-11-29T10:19:50.618Z,99827
2017-11-29T10:22:18.808Z,99826
2017-11-29T10:24:47.273Z,99832
2017-11-29T10:27:15.509Z,99827
2017-11-29T10:29:43.705Z,99835
2017-11-29T10:32:11.918Z,99836
2017-11-29T10:34:40.932Z,99835
2017-11-29T10:37:09.987Z,99835
2017-11-29T10:39:38.150Z,99830
2017-11-29T10:42:06.328Z,99827
2017-11-29T10:44:34.472Z,99835
2017-11-29T10:47:02.649Z,99830
2017-11-29T10:49:30.804Z,99831
2017-11-29T10:51:59.689Z,99835
2017-11-29T10:54:28.716Z,99827
2017-11-29T10:56:56.897Z,99830
2017-11-29T10:59:25.071Z,99823
2017-11-29T11:01:53.264Z,99817
2017-11-29T11:04:21.447Z,99832
2017-11-29T11:06:49.634Z,99837
2017-11-29T11:09:17.761Z,99833
2017-11-29T11:11:46.041Z,99838
2017-11-29T11:14:14.212Z,99839
2017-11-29T11:16:42.436Z,99843
2017-11-29T11:19:10.582Z,99837
2017-11-29T11:21:38.748Z,99833
2017-11-29T11:24:06.917Z,99838
2017-11-29T11:26:35.426Z,99834
2017-11-29T11:29:03.861Z,99840
2017-11-29T11:31:32.041Z,99837
2017-11-29T11:34:00.237Z,99845
2017-11-29T11:36:28.416Z,99843
2017-11-29T11:38:56.629Z,99842
2017-11-29T11:41:24.852Z,99836
2017-11-29T11:43:53.039Z,99837
2017-11-29T11:46:21.513Z,99834
2017-11-29T11:48:49.674Z,99843
2017-11-29T11:51:17.980Z,99828
2017-11-29T11:53:46.392Z,99823
2017-11-29T11:56:14.566Z,99827
2017-11-29T11:58:42.785Z,99826
2017-11-29T12:01:11.881Z,99833
2017-11-29T12:03:40.041Z,99829
2017-11-29T12:06:08.924Z,99825
2017-11-29T12:08:37.791Z,99831
2017-11-29T12:11:06.963Z,99826
2017-11-29T12:13:35.340Z,99827
2017-11-29T12:16:04.388Z,99824
2017-11-29T12:18:33.290Z,99826
2017-11-29T12:21:01.408Z,99826
2017-11-29T12:23:29.554Z,99833
2017-11-29T12:25:57.702Z,99825
2017-11-29T12:28:26.632Z,99833
2017-11-29T12:30:54.804Z,99826
2017-11-29T12:33:22.956Z,99817
2017-11-29T12:35:51.085Z,99825
2017-11-29T12:38:19.960Z,99823
2017-11-29T12:40:48.154Z,99824
2017-11-29T12:43:16.437Z,99824
2017-11-29T12:45:44.619Z,99827
2017-11-29T12:48:27.173Z,99830
2017-11-29T12:51:09.590Z,99825
2017-11-29T12:53:37.719Z,99829
2017-11-29T12:56:05.847Z,99829
2017-11-29T12:58:34.120Z,99825
2017-11-29T13:01:02.560Z,99824
2017-11-29T13:03:30.722Z,99826
2017-11-29T13:05:59.616Z,99820
2017-11-29T13:08:28.561Z,99828
2017-11-29T13:10:57.049Z,99832
2017-11-29T13:13:25.968Z,99766
2017-11-29T13:15:54.204Z,99832
2017-11-29T13:18:22.345Z,99831
2017-11-29T13:20:50.496Z,99831
2017-11-29T13:23:18.957Z,99826
2017-11-29T13:25:47.109Z,99831
2017-11-29T13:28:15.305Z,99829
2017-11-29T13:30:43.492Z,99829
2017-11-29T13:33:11.717Z,99822
2017-11-29T13:35:39.857Z,99822
2017-11-29T13:38:08.017Z,99822
2017-11-29T13:40:36.237Z,99826
2017-11-29T13:43:05.328Z,99822
2017-11-29T13:45:33.450Z,99827
2017-11-29T13:48:01.699Z,99828
2017-11-29T13:50:29.833Z,99822
2017-11-29T13:52:58.713Z,99832
2017-11-29T13:55:27.589Z,99828
2017-11-29T13:57:55.717Z,99825
2017-11-29T14:00:23.853Z,99832
2017-11-29T14:02:52.004Z,99824
2017-11-29T14:05:20.219Z,99826
2017-11-29T14:07:48.316Z,99830
2017-11-29T14:10:16.447Z,99835
2017-11-29T14:12:45.741Z,99827
2017-11-29T14:15:13.869Z,99819
2017-11-29T14:17:41.976Z,99839
2017-11-29T14:20:10.776Z,99833
2017-11-29T14:22:39.644Z,99842
2017-11-29T14:25:07.734Z,99847
2017-11-29T14:27:36.224Z,99846
2017-11-29T14:30:04.561Z,99848
2017-11-29T14:32:32.629Z,99836
2017-11-29T14:35:01.665Z,99851
2017-11-29T14:37:38.417Z,99858
2017-11-29T14:40:07.277Z,99855
2017-11-29T14:42:35.436Z,99847
2017-11-29T14:45:03.648Z,99845
2017-11-29T14:47:31.721Z,99860
2017-11-29T14:50:00.114Z,99863
2017-11-29T14:52:28.224Z,99866
2017-11-29T14:54:57.054Z,99861
2017-11-29T14:57:25.156Z,99865
2017-11-29T14:59:53.235Z,99858
2017-11-29T15:02:22.137Z,99864
2017-11-29T15:04:50.976Z,99861
2017-11-29T15:07:19.025Z,99861
2017-11-29T15:09:47.108Z,99871
2017-11-29T15:12:15.601Z,99862
2017-11-29T15:14:43.696Z,99869
2017-11-29T15:17:11.757Z,99874
2017-11-29T15:19:39.870Z,99875
2017-11-29T15:22:08.692Z,99872
2017-11-29T15:24:36.759Z,99878
2017-11-29T15:27:05.015Z,99873
2017-11-29T15:29:34.224Z,99867
2017-11-29T15:32:03.133Z,99871
2017-11-29T15:34:31.297Z,99866
2017-11-29T15:36:59.421Z,99869
2017-11-29T15:39:27.645Z,99869
2017-11-29T15:41:55.752Z,99864
2017-11-29T15:44:23.857Z,99867
2017-11-29T15:46:51.949Z,99853
2017-11-29T15:49:20.796Z,99865
2017-11-29T15:51:49.653Z,99855
2017-11-29T15:54:18.173Z,99866
2017-11-29T15:56:46.363Z,99867
2017-11-29T15:59:14.506Z,99873
2017-11-29T16:01:42.618Z,99866
2017-11-29T16:04:10.728Z,99866
2017-11-29T16:06:38.858Z,99869
2017-11-29T16:09:07.729Z,99865
2017-11-29T16:11:36.561Z,99873
2017-11-29T16:14:05.423Z,99877
2017-11-29T16:16:34.908Z,99872
2017-11-29T16:19:03.042Z,99882
2017-11-29T16:21:31.257Z,99881
2017-11-29T16:23:59.345Z,99874
2017-11-29T16:26:27.474Z,99886
2017-11-29T16:28:55.887Z,99888
2017-11-29T16:31:24.482Z,99896
2017-11-29T16:33:52.676Z,99885
2017-11-29T16:36:20.780Z,99885
2017-11-29T16:38:48.873Z,99886
2017-11-29T16:41:17.005Z,99887
2017-11-29T16:43:45.178Z,99893
2017-11-29T16:46:14.038Z,99893
2017-11-29T16:48:42.180Z,99889
2017-11-29T16:51:10.305Z,99893
2017-11-29T16:53:38.419Z,99884
2017-11-29T16:56:06.816Z,99887
2017-11-29T16:58:34.972Z,99892
2017-11-29T17:01:03.466Z,99885
2017-11-29T17:03:31.628Z,99880
2017-11-29T17:06:00.525Z,99881
2017-11-29T17:08:28.654Z,99879
2017-11-29T17:10:57.553Z,99880
2017-11-29T17:13:25.645Z,99881
2017-11-29T17:15:53.841Z,99884
2017-11-29T17:18:22.221Z,99875
2017-11-29T17:20:50.332Z,99868
2017-11-29T17:23:18.436Z,99875
2017-11-29T17:25:46.644Z,99866
2017-11-29T17:28:14.826Z,99865
2017-11-29T17:30:43.266Z,99873
2017-11-29T17:33:12.117Z,99870
2017-11-29T17:35:40.315Z,99871
2017-11-29T17:38:08.421Z,99861
2017-11-29T17:40:36.544Z,99859
2017-11-29T17:43:04.655Z,99861
2017-11-29T17:45:32.854Z,99858
2017-11-29T17:48:00.956Z,99874
2017-11-29T17:50:29.341Z,99886
2017-11-29T17:52:57.463Z,99878
2017-11-29T17:55:25.574Z,99883
2017-11-29T17:57:53.661Z,99880
2017-11-29T18:00:23.316Z,99883
2017-11-29T18:02:51.777Z,99883
2017-11-29T18:05:20.641Z,99888
2017-11-29T18:07:48.759Z,99880
2017-11-29T18:10:16.891Z,99887
2017-11-29T18:12:44.988Z,99879
2017-11-29T18:15:13.077Z,99886
2017-11-29T18:17:41.198Z,99886
2017-11-29T18:20:09.868Z,99892
2017-11-29T18:22:38.141Z,99887
2017-11-29T18:25:06.357Z,99893
2017-11-29T18:27:36.068Z,99884
2017-11-29T18:30:04.966Z,99881
2017-11-29T18:32:33.092Z,99896
2017-11-29T18:35:01.202Z,99885
2017-11-29T18:37:29.293Z,99879
2017-11-29T18:39:58.115Z,99891
2017-11-29T18:42:26.353Z,99886
2017-11-29T18:44:54.491Z,99888
2017-11-29T18:47:22.661Z,99877
2017-11-29T18:49:51.174Z,99886
2017-11-29T18:52:19.529Z,99879
2017-11-29T18:54:47.674Z,99895
2017-11-29T18:57:15.873Z,99892
2017-11-29T18:59:44.605Z,99896
2017-11-29T19:02:13.569Z,99903
2017-11-29T19:04:41.672Z,99899
2017-11-29T19:07:09.770Z,99900
2017-11-29T19:09:38.424Z,99895
2017-11-29T19:12:06.592Z,99904
2017-11-29T19:14:35.455Z,99906
2017-11-29T19:17:03.659Z,99908
2017-11-29T19:19:32.515Z,99903
2017-11-29T19:22:00.629Z,99898
2017-11-29T19:24:28.772Z,99906
2017-11-29T19:26:56.896Z,99909
2017-11-29T19:29:24.996Z,99904
2017-11-29T19:31:53.420Z,99902
2017-11-29T19:34:22.245Z,99897
2017-11-29T19:36:51.371Z,99899
2017-11-29T19:39:19.500Z,99885
2017-11-29T19:41:47.575Z,99898
2017-11-29T19:44:16.284Z,99883
2017-11-29T19:46:44.399Z,99892
2017-11-29T19:49:12.481Z,99891
2017-11-29T19:51:42.076Z,99889
2017-11-29T19:54:10.164Z,99889
2017-11-29T19:56:40.485Z,99889
2017-11-29T19:59:08.622Z,99887
2017-11-29T20:01:36.750Z,99885
2017-11-29T20:04:05.585Z,99881
2017-11-29T20:06:33.775Z,99885
2017-11-29T20:09:01.864Z,99881
2017-11-29T20:11:30.020Z,99876
2017-11-29T20:13:58.496Z,99892
2017-11-29T20:16:26.611Z,99888
2017-11-29T20:18:54.720Z,99893
2017-11-29T20:21:22.841Z,99895
2017-11-29T20:23:50.982Z,99893
2017-11-29T20:26:19.142Z,99883
2017-11-29T20:28:47.198Z,99892
2017-11-29T20:31:15.277Z,99887
2017-11-29T20:33:43.378Z,99881
2017-11-29T20:36:11.469Z,99885
2017-11-29T20:38:39.950Z,99882
2017-11-29T20:41:08.018Z,99898
2017-11-29T20:43:36.094Z,99892
2017-11-29T20:46:05.165Z,99894
2017-11-29T20:48:33.260Z,99889
2017-11-29T20:51:03.211Z,99892
2017-11-29T20:53:32.061Z,99885
2017-11-29T20:56:00.175Z,99885
2017-11-29T20:58:28.277Z,99881
2017-11-29T21:00:56.354Z,99880
2017-11-29T21:03:24.733Z,99886
2017-11-29T21:05:52.836Z,99873
2017-11-29T21:08:20.969Z,99891
2017-11-29T21:10:49.223Z,99880
2017-11-29T21:13:17.370Z,99883
2017-11-29T21:15:45.535Z,99885
2017-11-29T21:18:14.083Z,99875
2017-11-29T21:20:42.194Z,99889
2017-11-29T21:23:11.029Z,99882
2017-11-29T21:25:39.421Z,99880
2017-11-29T21:28:07.516Z,99879
2017-11-29T21:30:35.590Z,99889
2017-11-29T21:33:03.855Z,99874
2017-11-29T21:35:32.361Z,99881
2017-11-29T21:38:00.434Z,99874
2017-11-29T21:40:28.490Z,99872
2017-11-29T21:42:56.556Z,99878
2017-11-29T21:45:24.831Z,99875
2017-11-29T21:47:52.913Z,99881
2017-11-29T21:50:21.162Z,99881
2017-11-29T21:52:49.627Z,99877
2017-11-29T21:55:17.685Z,99876
2017-11-29T21:57:46.520Z,99867
2017-11-29T22:00:14.692Z,99891
2017-11-29T22:02:42.773Z,99880
2017-11-29T22:05:11.235Z,99881
2017-11-29T22:07:39.476Z,99884
2017-11-29T22:10:08.290Z,99891
2017-11-29T22:12:36.397Z,99886
2017-11-29T22:15:04.484Z,99884
2017-11-29T22:17:33.281Z,99880
2017-11-29T22:20:01.523Z,99881
2017-11-29T22:22:29.596Z,99874
2017-11-29T22:24:58.075Z,99877
2017-11-29T22:27:26.292Z,99865
2017-11-29T22:29:54.405Z,99876
2017-11-29T22:32:22.496Z,99878
2017-11-29T22:34:50.776Z,99876
2017-11-29T22:37:18.841Z,99876
2017-11-29T22:39:46.965Z,99874
2017-11-29T22:42:15.788Z,99872
2017-11-29T22:44:44.636Z,99872
2017-11-29T22:47:12.722Z,99872
2017-11-29T22:49:40.976Z,99874
2017-11-29T22:52:09.056Z,99866
2017-11-29T22:54:38.622Z,99863
2017-11-29T22:57:06.715Z,99863
2017-11-29T22:59:34.854Z,99867
2017-11-29T23:02:04.316Z,99859
2017-11-29T23:04:32.381Z,99860
2017-11-29T23:07:01.200Z,99859
2017-11-29T23:09:29.273Z,99868
2017-11-29T23:11:57.472Z,99867
2017-11-29T23:14:26.052Z,99863
2017-11-29T23:16:54.173Z,99863
2017-11-29T23:19:22.283Z,99865
2017-11-29T23:21:50.424Z,99866
2017-11-29T23:24:19.369Z,99829
2017-11-29T23:26:47.528Z,99846
2017-11-29T23:29:15.797Z,99843
2017-11-29T23:31:43.868Z,99852
2017-11-29T23:34:12.005Z,99844
2017-11-29T23:36:40.870Z,99849
2017-11-29T23:39:08.997Z,99843
2017-11-29T23:41:37.096Z,99838
2017-11-29T23:44:05.202Z,99833
2017-11-29T23:46:33.584Z,99836
2017-11-29T23:49:02.352Z,99847
2017-11-29T23:51:30.475Z,99839
2017-11-29T23:53:59.525Z,99839
2017-11-29T23:56:27.686Z,99829
2017-11-29T23:58:55.784Z,99836
